sensor_id;sensor_type;location;lat;lon;timestamp;temperature;humidity
32787;DHT22;19139;49.372;8.580;2022-11-15T00:02:14;18.30;98.00
32787;DHT22;19139;49.372;8.580;2022-11-15T00:04:41;18.30;97.90
32787;DHT22;19139;49.372;8.580;2022-11-15T00:07:12;18.30;97.90
32787;DHT22;19139;49.372;8.580;2022-11-15T00:09:44;18.30;97.90
32787;DHT22;19139;49.372;8.580;2022-11-15T00:12:11;18.30;97.90
32787;DHT22;19139;49.372;8.580;2022-11-15T00:14:38;18.30;97.90
32787;DHT22;19139;49.372;8.580;2022-11-15T00:17:05;18.30;97.90
32787;DHT22;19139;49.372;8.580;2022-11-15T00:19:31;18.30;97.90
32787;DHT22;19139;49.372;8.580;2022-11-15T00:22:03;18.30;97.90
32787;DHT22;19139;49.372;8.580;2022-11-15T00:24:35;18.30;97.90
32787;DHT22;19139;49.372;8.580;2022-11-15T00:27:01;18.30;97.80
32787;DHT22;19139;49.372;8.580;2022-11-15T00:29:33;18.30;97.80
32787;DHT22;19139;49.372;8.580;2022-11-15T00:32:04;18.30;97.80
32787;DHT22;19139;49.372;8.580;2022-11-15T00:34:31;18.30;97.80
32787;DHT22;19139;49.372;8.580;2022-11-15T00:36:58;18.30;97.80
32787;DHT22;19139;49.372;8.580;2022-11-15T00:39:24;18.30;97.80
32787;DHT22;19139;49.372;8.580;2022-11-15T00:41:55;18.30;97.70
32787;DHT22;19139;49.372;8.580;2022-11-15T00:44:22;18.30;97.70
32787;DHT22;19139;49.372;8.580;2022-11-15T00:46:53;18.30;97.70
32787;DHT22;19139;49.372;8.580;2022-11-15T00:49:25;18.30;97.70
32787;DHT22;19139;49.372;8.580;2022-11-15T00:51:51;18.30;97.70
32787;DHT22;19139;49.372;8.580;2022-11-15T00:54:23;18.30;97.70
32787;DHT22;19139;49.372;8.580;2022-11-15T00:56:54;18.30;97.70
32787;DHT22;19139;49.372;8.580;2022-11-15T00:59:21;18.30;97.70
32787;DHT22;19139;49.372;8.580;2022-11-15T01:01:47;18.30;97.70
32787;DHT22;19139;49.372;8.580;2022-11-15T01:04:14;18.20;97.70
32787;DHT22;19139;49.372;8.580;2022-11-15T01:06:46;18.30;97.70
32787;DHT22;19139;49.372;8.580;2022-11-15T01:09:13;18.30;97.70
32787;DHT22;19139;49.372;8.580;2022-11-15T01:11:44;18.30;97.70
32787;DHT22;19139;49.372;8.580;2022-11-15T01:14:11;18.30;97.70
32787;DHT22;19139;49.372;8.580;2022-11-15T01:16:38;18.30;97.70
32787;DHT22;19139;49.372;8.580;2022-11-15T01:19:04;18.30;97.70
32787;DHT22;19139;49.372;8.580;2022-11-15T01:21:36;18.30;97.70
32787;DHT22;19139;49.372;8.580;2022-11-15T01:24:02;18.30;97.60
32787;DHT22;19139;49.372;8.580;2022-11-15T01:26:34;18.30;97.60
32787;DHT22;19139;49.372;8.580;2022-11-15T01:29:05;18.30;97.60
32787;DHT22;19139;49.372;8.580;2022-11-15T01:31:32;18.30;97.60
32787;DHT22;19139;49.372;8.580;2022-11-15T01:34:03;18.30;97.60
32787;DHT22;19139;49.372;8.580;2022-11-15T01:36:35;18.30;97.60
32787;DHT22;19139;49.372;8.580;2022-11-15T01:39:01;18.30;97.60
32787;DHT22;19139;49.372;8.580;2022-11-15T01:41:33;18.30;97.60
32787;DHT22;19139;49.372;8.580;2022-11-15T01:44:43;18.30;97.60
32787;DHT22;19139;49.372;8.580;2022-11-15T01:47:29;18.30;97.50
32787;DHT22;19139;49.372;8.580;2022-11-15T01:50:02;18.30;97.50
32787;DHT22;19139;49.372;8.580;2022-11-15T01:52:33;18.30;97.50
32787;DHT22;19139;49.372;8.580;2022-11-15T01:57:35;18.30;97.50
32787;DHT22;19139;49.372;8.580;2022-11-15T02:00:07;18.30;97.50
32787;DHT22;19139;49.372;8.580;2022-11-15T02:02:39;18.20;97.50
32787;DHT22;19139;49.372;8.580;2022-11-15T02:05:06;18.30;97.50
32787;DHT22;19139;49.372;8.580;2022-11-15T02:07:38;18.30;97.50
32787;DHT22;19139;49.372;8.580;2022-11-15T02:10:13;18.30;97.50
32787;DHT22;19139;49.372;8.580;2022-11-15T02:12:45;18.30;97.50
32787;DHT22;19139;49.372;8.580;2022-11-15T02:15:18;18.30;97.50
32787;DHT22;19139;49.372;8.580;2022-11-15T02:20:54;18.30;97.40
32787;DHT22;19139;49.372;8.580;2022-11-15T02:26:59;18.20;97.40
32787;DHT22;19139;49.372;8.580;2022-11-15T02:32:54;18.30;97.40
32787;DHT22;19139;49.372;8.580;2022-11-15T02:35:52;18.20;97.40
32787;DHT22;19139;49.372;8.580;2022-11-15T02:38:43;18.20;97.50
32787;DHT22;19139;49.372;8.580;2022-11-15T02:41:28;18.20;97.40
32787;DHT22;19139;49.372;8.580;2022-11-15T02:44:03;18.30;97.40
32787;DHT22;19139;49.372;8.580;2022-11-15T02:46:43;18.30;97.70
32787;DHT22;19139;49.372;8.580;2022-11-15T02:49:37;18.30;97.40
32787;DHT22;19139;49.372;8.580;2022-11-15T02:52:05;18.20;97.30
32787;DHT22;19139;49.372;8.580;2022-11-15T02:54:36;18.30;97.40
32787;DHT22;19139;49.372;8.580;2022-11-15T02:57:16;18.20;97.30
32787;DHT22;19139;49.372;8.580;2022-11-15T02:59:59;18.20;97.40
32787;DHT22;19139;49.372;8.580;2022-11-15T03:02:42;18.30;97.40
32787;DHT22;19139;49.372;8.580;2022-11-15T03:13:57;18.20;97.30
32787;DHT22;19139;49.372;8.580;2022-11-15T03:16:41;18.20;97.30
32787;DHT22;19139;49.372;8.580;2022-11-15T03:21:55;18.20;97.30
32787;DHT22;19139;49.372;8.580;2022-11-15T03:24:28;18.20;97.30
32787;DHT22;19139;49.372;8.580;2022-11-15T03:26:59;18.20;97.30
32787;DHT22;19139;49.372;8.580;2022-11-15T03:29:34;18.20;97.30
32787;DHT22;19139;49.372;8.580;2022-11-15T03:32:14;18.20;97.30
32787;DHT22;19139;49.372;8.580;2022-11-15T03:35:11;18.20;97.20
32787;DHT22;19139;49.372;8.580;2022-11-15T03:37:44;18.20;97.20
32787;DHT22;19139;49.372;8.580;2022-11-15T03:40:17;18.20;97.20
32787;DHT22;19139;49.372;8.580;2022-11-15T03:42:49;18.20;97.20
32787;DHT22;19139;49.372;8.580;2022-11-15T03:45:51;18.20;97.20
32787;DHT22;19139;49.372;8.580;2022-11-15T03:48:18;18.30;97.20
32787;DHT22;19139;49.372;8.580;2022-11-15T03:50:47;18.20;97.20
32787;DHT22;19139;49.372;8.580;2022-11-15T03:53:14;18.20;97.20
32787;DHT22;19139;49.372;8.580;2022-11-15T03:55:46;18.20;97.20
32787;DHT22;19139;49.372;8.580;2022-11-15T03:58:17;18.20;97.20
32787;DHT22;19139;49.372;8.580;2022-11-15T04:00:49;18.30;97.20
32787;DHT22;19139;49.372;8.580;2022-11-15T04:03:15;18.30;97.20
32787;DHT22;19139;49.372;8.580;2022-11-15T04:05:47;18.20;97.10
32787;DHT22;19139;49.372;8.580;2022-11-15T04:08:18;18.20;97.10
32787;DHT22;19139;49.372;8.580;2022-11-15T04:10:45;18.30;97.20
32787;DHT22;19139;49.372;8.580;2022-11-15T04:13:16;18.20;97.10
32787;DHT22;19139;49.372;8.580;2022-11-15T04:15:48;18.30;97.20
32787;DHT22;19139;49.372;8.580;2022-11-15T04:18:14;18.30;97.20
32787;DHT22;19139;49.372;8.580;2022-11-15T04:20:46;18.30;97.10
32787;DHT22;19139;49.372;8.580;2022-11-15T04:23:36;18.20;97.10
32787;DHT22;19139;49.372;8.580;2022-11-15T04:26:36;18.30;97.10
32787;DHT22;19139;49.372;8.580;2022-11-15T04:29:08;18.20;97.10
32787;DHT22;19139;49.372;8.580;2022-11-15T04:31:58;18.20;97.10
32787;DHT22;19139;49.372;8.580;2022-11-15T04:34:24;18.20;97.10
32787;DHT22;19139;49.372;8.580;2022-11-15T04:36:56;18.20;97.10
32787;DHT22;19139;49.372;8.580;2022-11-15T04:39:57;18.20;97.10
32787;DHT22;19139;49.372;8.580;2022-11-15T04:42:28;18.20;97.10
32787;DHT22;19139;49.372;8.580;2022-11-15T04:44:55;18.20;97.10
32787;DHT22;19139;49.372;8.580;2022-11-15T04:47:27;18.20;97.10
32787;DHT22;19139;49.372;8.580;2022-11-15T04:49:59;18.20;97.10
32787;DHT22;19139;49.372;8.580;2022-11-15T04:52:25;18.30;97.10
32787;DHT22;19139;49.372;8.580;2022-11-15T04:54:57;18.20;97.10
32787;DHT22;19139;49.372;8.580;2022-11-15T04:57:28;18.20;97.10
32787;DHT22;19139;49.372;8.580;2022-11-15T04:59:55;18.30;97.10
32787;DHT22;19139;49.372;8.580;2022-11-15T05:02:26;18.20;97.10
32787;DHT22;19139;49.372;8.580;2022-11-15T05:05:18;18.20;97.00
32787;DHT22;19139;49.372;8.580;2022-11-15T05:07:44;18.20;97.00
32787;DHT22;19139;49.372;8.580;2022-11-15T05:10:16;18.20;97.00
32787;DHT22;19139;49.372;8.580;2022-11-15T05:12:47;18.20;97.00
32787;DHT22;19139;49.372;8.580;2022-11-15T05:15:19;18.30;97.00
32787;DHT22;19139;49.372;8.580;2022-11-15T05:17:45;18.20;97.00
32787;DHT22;19139;49.372;8.580;2022-11-15T05:20:17;18.20;97.00
32787;DHT22;19139;49.372;8.580;2022-11-15T05:22:48;18.20;97.00
32787;DHT22;19139;49.372;8.580;2022-11-15T05:25:15;18.20;97.00
32787;DHT22;19139;49.372;8.580;2022-11-15T05:27:46;18.20;97.00
32787;DHT22;19139;49.372;8.580;2022-11-15T05:30:18;18.20;97.00
32787;DHT22;19139;49.372;8.580;2022-11-15T05:32:45;18.20;97.00
32787;DHT22;19139;49.372;8.580;2022-11-15T05:35:38;18.20;97.00
32787;DHT22;19139;49.372;8.580;2022-11-15T05:38:05;18.20;97.00
32787;DHT22;19139;49.372;8.580;2022-11-15T05:40:37;18.30;97.00
32787;DHT22;19139;49.372;8.580;2022-11-15T05:43:09;18.30;97.00
32787;DHT22;19139;49.372;8.580;2022-11-15T05:45:36;18.20;97.00
32787;DHT22;19139;49.372;8.580;2022-11-15T05:48:09;18.20;96.90
32787;DHT22;19139;49.372;8.580;2022-11-15T05:50:39;18.20;96.90
32787;DHT22;19139;49.372;8.580;2022-11-15T05:53:14;18.30;97.00
32787;DHT22;19139;49.372;8.580;2022-11-15T05:55:47;18.20;96.90
32787;DHT22;19139;49.372;8.580;2022-11-15T05:58:19;18.20;97.00
32787;DHT22;19139;49.372;8.580;2022-11-15T06:00:46;18.20;96.90
32787;DHT22;19139;49.372;8.580;2022-11-15T06:03:18;18.20;96.90
32787;DHT22;19139;49.372;8.580;2022-11-15T06:05:44;18.30;97.00
32787;DHT22;19139;49.372;8.580;2022-11-15T06:08:16;18.30;97.00
32787;DHT22;19139;49.372;8.580;2022-11-15T06:10:47;18.20;96.90
32787;DHT22;19139;49.372;8.580;2022-11-15T06:13:19;18.30;97.00
32787;DHT22;19139;49.372;8.580;2022-11-15T06:15:45;18.20;96.90
32787;DHT22;19139;49.372;8.580;2022-11-15T06:18:17;18.20;97.00
32787;DHT22;19139;49.372;8.580;2022-11-15T06:20:48;18.20;96.90
32787;DHT22;19139;49.372;8.580;2022-11-15T06:23:15;18.20;96.90
32787;DHT22;19139;49.372;8.580;2022-11-15T06:25:46;18.20;96.90
32787;DHT22;19139;49.372;8.580;2022-11-15T06:28:18;18.20;96.90
32787;DHT22;19139;49.372;8.580;2022-11-15T06:30:44;18.20;96.90
32787;DHT22;19139;49.372;8.580;2022-11-15T06:33:16;18.20;96.90
32787;DHT22;19139;49.372;8.580;2022-11-15T06:35:47;18.20;96.90
32787;DHT22;19139;49.372;8.580;2022-11-15T06:38:19;18.20;96.90
32787;DHT22;19139;49.372;8.580;2022-11-15T06:40:45;18.20;96.90
32787;DHT22;19139;49.372;8.580;2022-11-15T06:43:17;18.30;96.90
32787;DHT22;19139;49.372;8.580;2022-11-15T06:45:48;18.30;96.90
32787;DHT22;19139;49.372;8.580;2022-11-15T06:48:15;18.20;97.20
32787;DHT22;19139;49.372;8.580;2022-11-15T06:50:57;18.00;95.70
32787;DHT22;19139;49.372;8.580;2022-11-15T06:53:30;17.80;95.50
32787;DHT22;19139;49.372;8.580;2022-11-15T06:56:04;17.70;95.20
32787;DHT22;19139;49.372;8.580;2022-11-15T06:58:36;17.60;95.30
32787;DHT22;19139;49.372;8.580;2022-11-15T07:01:10;17.60;95.20
32787;DHT22;19139;49.372;8.580;2022-11-15T07:03:42;17.50;95.00
32787;DHT22;19139;49.372;8.580;2022-11-15T07:06:13;17.50;95.10
32787;DHT22;19139;49.372;8.580;2022-11-15T07:08:45;17.50;95.10
32787;DHT22;19139;49.372;8.580;2022-11-15T07:11:16;17.40;94.90
32787;DHT22;19139;49.372;8.580;2022-11-15T07:13:48;17.40;95.00
32787;DHT22;19139;49.372;8.580;2022-11-15T07:16:14;17.40;94.90
32787;DHT22;19139;49.372;8.580;2022-11-15T07:18:46;17.30;95.00
32787;DHT22;19139;49.372;8.580;2022-11-15T07:21:18;17.30;94.90
32787;DHT22;19139;49.372;8.580;2022-11-15T07:23:51;17.30;94.90
32787;DHT22;19139;49.372;8.580;2022-11-15T07:26:23;17.30;94.90
32787;DHT22;19139;49.372;8.580;2022-11-15T07:28:54;17.30;94.90
32787;DHT22;19139;49.372;8.580;2022-11-15T07:31:26;17.30;94.90
32787;DHT22;19139;49.372;8.580;2022-11-15T07:33:57;17.30;95.00
32787;DHT22;19139;49.372;8.580;2022-11-15T07:36:28;17.30;94.80
32787;DHT22;19139;49.372;8.580;2022-11-15T07:38:55;17.20;94.90
32787;DHT22;19139;49.372;8.580;2022-11-15T07:41:26;17.20;95.00
32787;DHT22;19139;49.372;8.580;2022-11-15T07:43:58;17.30;94.90
32787;DHT22;19139;49.372;8.580;2022-11-15T07:46:25;17.30;94.90
32787;DHT22;19139;49.372;8.580;2022-11-15T07:48:56;17.30;94.90
32787;DHT22;19139;49.372;8.580;2022-11-15T07:51:28;17.20;94.90
32787;DHT22;19139;49.372;8.580;2022-11-15T07:53:54;17.20;95.10
32787;DHT22;19139;49.372;8.580;2022-11-15T07:56:26;17.30;95.20
32787;DHT22;19139;49.372;8.580;2022-11-15T07:58:57;17.40;95.50
32787;DHT22;19139;49.372;8.580;2022-11-15T08:01:25;17.50;95.60
32787;DHT22;19139;49.372;8.580;2022-11-15T08:03:56;17.60;95.60
32787;DHT22;19139;49.372;8.580;2022-11-15T08:06:28;17.60;95.70
32787;DHT22;19139;49.372;8.580;2022-11-15T08:08:54;17.60;95.60
32787;DHT22;19139;49.372;8.580;2022-11-15T08:11:26;17.70;95.60
32787;DHT22;19139;49.372;8.580;2022-11-15T08:13:58;17.70;95.60
32787;DHT22;19139;49.372;8.580;2022-11-15T08:16:25;17.80;95.60
32787;DHT22;19139;49.372;8.580;2022-11-15T08:18:56;17.80;95.80
32787;DHT22;19139;49.372;8.580;2022-11-15T08:21:28;17.80;96.70
32787;DHT22;19139;49.372;8.580;2022-11-15T08:23:59;17.90;96.90
32787;DHT22;19139;49.372;8.580;2022-11-15T08:26:26;17.90;96.80
32787;DHT22;19139;49.372;8.580;2022-11-15T08:28:55;17.90;96.80
32787;DHT22;19139;49.372;8.580;2022-11-15T08:31:27;17.90;96.80
32787;DHT22;19139;49.372;8.580;2022-11-15T08:33:58;17.90;96.70
32787;DHT22;19139;49.372;8.580;2022-11-15T08:36:25;17.90;96.60
32787;DHT22;19139;49.372;8.580;2022-11-15T08:38:56;17.90;96.60
32787;DHT22;19139;49.372;8.580;2022-11-15T08:41:33;17.90;96.50
32787;DHT22;19139;49.372;8.580;2022-11-15T08:44:06;17.90;96.50
32787;DHT22;19139;49.372;8.580;2022-11-15T08:46:38;17.90;96.50
32787;DHT22;19139;49.372;8.580;2022-11-15T08:49:04;17.90;96.50
32787;DHT22;19139;49.372;8.580;2022-11-15T08:51:31;18.00;96.50
32787;DHT22;19139;49.372;8.580;2022-11-15T08:53:57;18.00;96.50
32787;DHT22;19139;49.372;8.580;2022-11-15T08:56:29;17.90;96.40
32787;DHT22;19139;49.372;8.580;2022-11-15T08:58:56;18.00;96.40
32787;DHT22;19139;49.372;8.580;2022-11-15T09:01:27;18.00;96.50
32787;DHT22;19139;49.372;8.580;2022-11-15T09:03:58;18.00;96.40
32787;DHT22;19139;49.372;8.580;2022-11-15T09:06:25;18.00;96.40
32787;DHT22;19139;49.372;8.580;2022-11-15T09:08:57;18.00;96.50
32787;DHT22;19139;49.372;8.580;2022-11-15T09:11:24;18.00;96.40
32787;DHT22;19139;49.372;8.580;2022-11-15T09:13:50;18.00;96.40
32787;DHT22;19139;49.372;8.580;2022-11-15T09:16:17;18.00;96.40
32787;DHT22;19139;49.372;8.580;2022-11-15T09:18:49;18.00;96.40
32787;DHT22;19139;49.372;8.580;2022-11-15T09:21:15;18.00;96.40
32787;DHT22;19139;49.372;8.580;2022-11-15T09:23:50;18.00;96.40
32787;DHT22;19139;49.372;8.580;2022-11-15T09:26:23;18.00;96.40
32787;DHT22;19139;49.372;8.580;2022-11-15T09:28:55;18.00;96.40
32787;DHT22;19139;49.372;8.580;2022-11-15T09:31:26;18.00;96.40
32787;DHT22;19139;49.372;8.580;2022-11-15T09:33:58;18.00;96.40
32787;DHT22;19139;49.372;8.580;2022-11-15T09:36:25;18.00;96.40
32787;DHT22;19139;49.372;8.580;2022-11-15T09:38:57;18.00;96.40
32787;DHT22;19139;49.372;8.580;2022-11-15T09:49:59;18.10;96.40
32787;DHT22;19139;49.372;8.580;2022-11-15T09:52:27;18.00;96.40
32787;DHT22;19139;49.372;8.580;2022-11-15T09:54:59;18.10;96.50
32787;DHT22;19139;49.372;8.580;2022-11-15T09:57:39;18.10;96.50
32787;DHT22;19139;49.372;8.580;2022-11-15T10:05:42;18.10;96.40
32787;DHT22;19139;49.372;8.580;2022-11-15T10:11:00;18.10;96.50
32787;DHT22;19139;49.372;8.580;2022-11-15T10:13:49;18.10;96.50
32787;DHT22;19139;49.372;8.580;2022-11-15T10:17:06;18.10;96.50
32787;DHT22;19139;49.372;8.580;2022-11-15T10:25:21;18.20;96.50
32787;DHT22;19139;49.372;8.580;2022-11-15T10:28:17;18.20;96.50
32787;DHT22;19139;49.372;8.580;2022-11-15T10:30:54;18.10;96.50
32787;DHT22;19139;49.372;8.580;2022-11-15T10:33:36;18.10;96.50
32787;DHT22;19139;49.372;8.580;2022-11-15T10:49:23;18.10;96.50
32787;DHT22;19139;49.372;8.580;2022-11-15T10:54:39;18.10;96.50
32787;DHT22;19139;49.372;8.580;2022-11-15T10:57:19;18.10;96.50
32787;DHT22;19139;49.372;8.580;2022-11-15T10:59:49;18.10;96.90
32787;DHT22;19139;49.372;8.580;2022-11-15T11:05:25;18.20;96.80
32787;DHT22;19139;49.372;8.580;2022-11-15T11:08:02;18.20;97.00
32787;DHT22;19139;49.372;8.580;2022-11-15T11:10:34;18.20;97.10
32787;DHT22;19139;49.372;8.580;2022-11-15T11:13:38;18.20;97.10
32787;DHT22;19139;49.372;8.580;2022-11-15T11:18:49;18.30;97.40
32787;DHT22;19139;49.372;8.580;2022-11-15T11:24:21;18.30;97.50
32787;DHT22;19139;49.372;8.580;2022-11-15T11:32:53;18.30;97.70
32787;DHT22;19139;49.372;8.580;2022-11-15T11:35:39;18.30;97.80
32787;DHT22;19139;49.372;8.580;2022-11-15T11:44:11;18.40;98.10
32787;DHT22;19139;49.372;8.580;2022-11-15T11:47:11;18.40;98.40
32787;DHT22;19139;49.372;8.580;2022-11-15T11:49:52;18.40;98.40
32787;DHT22;19139;49.372;8.580;2022-11-15T11:52:25;18.50;98.60
32787;DHT22;19139;49.372;8.580;2022-11-15T12:00:21;18.40;98.50
32787;DHT22;19139;49.372;8.580;2022-11-15T12:08:35;18.40;98.20
32787;DHT22;19139;49.372;8.580;2022-11-15T12:11:23;18.50;98.20
32787;DHT22;19139;49.372;8.580;2022-11-15T12:14:01;18.50;98.20
32787;DHT22;19139;49.372;8.580;2022-11-15T12:16:31;18.50;98.20
32787;DHT22;19139;49.372;8.580;2022-11-15T12:19:01;18.50;98.30
32787;DHT22;19139;49.372;8.580;2022-11-15T12:30:18;18.50;98.50
32787;DHT22;19139;49.372;8.580;2022-11-15T12:32:55;18.50;98.50
32787;DHT22;19139;49.372;8.580;2022-11-15T12:38:00;18.50;98.60
32787;DHT22;19139;49.372;8.580;2022-11-15T12:40:30;18.50;98.70
32787;DHT22;19139;49.372;8.580;2022-11-15T12:42:58;18.60;98.80
32787;DHT22;19139;49.372;8.580;2022-11-15T12:45:29;18.60;98.70
32787;DHT22;19139;49.372;8.580;2022-11-15T13:01:10;18.60;98.90
32787;DHT22;19139;49.372;8.580;2022-11-15T13:06:53;18.60;99.00
32787;DHT22;19139;49.372;8.580;2022-11-15T13:11:59;18.60;99.00
32787;DHT22;19139;49.372;8.580;2022-11-15T13:17:24;18.70;99.10
32787;DHT22;19139;49.372;8.580;2022-11-15T13:22:43;18.70;99.20
32787;DHT22;19139;49.372;8.580;2022-11-15T13:31:13;18.70;99.20
32787;DHT22;19139;49.372;8.580;2022-11-15T13:33:48;18.70;99.20
32787;DHT22;19139;49.372;8.580;2022-11-15T13:36:38;18.70;99.30
32787;DHT22;19139;49.372;8.580;2022-11-15T13:39:25;18.70;99.30
32787;DHT22;19139;49.372;8.580;2022-11-15T13:41:53;18.70;99.30
32787;DHT22;19139;49.372;8.580;2022-11-15T13:44:22;18.70;99.20
32787;DHT22;19139;49.372;8.580;2022-11-15T13:46:59;18.70;99.20
32787;DHT22;19139;49.372;8.580;2022-11-15T13:49:31;18.70;99.10
32787;DHT22;19139;49.372;8.580;2022-11-15T13:52:00;18.70;99.00
32787;DHT22;19139;49.372;8.580;2022-11-15T13:54:40;18.70;99.00
32787;DHT22;19139;49.372;8.580;2022-11-15T13:57:34;18.70;98.90
32787;DHT22;19139;49.372;8.580;2022-11-15T14:00:33;18.70;98.80
32787;DHT22;19139;49.372;8.580;2022-11-15T14:03:21;18.70;98.80
32787;DHT22;19139;49.372;8.580;2022-11-15T14:06:10;18.70;98.70
32787;DHT22;19139;49.372;8.580;2022-11-15T14:11:38;18.70;98.70
32787;DHT22;19139;49.372;8.580;2022-11-15T14:14:25;18.70;98.60
32787;DHT22;19139;49.372;8.580;2022-11-15T14:16:59;18.70;98.60
32787;DHT22;19139;49.372;8.580;2022-11-15T14:22:19;18.70;98.50
32787;DHT22;19139;49.372;8.580;2022-11-15T14:25:18;18.70;98.50
32787;DHT22;19139;49.372;8.580;2022-11-15T14:30:49;18.70;98.70
32787;DHT22;19139;49.372;8.580;2022-11-15T14:33:33;18.80;98.80
32787;DHT22;19139;49.372;8.580;2022-11-15T14:36:14;18.70;98.80
32787;DHT22;19139;49.372;8.580;2022-11-15T14:38:46;18.70;98.90
32787;DHT22;19139;49.372;8.580;2022-11-15T14:41:23;18.70;98.90
32787;DHT22;19139;49.372;8.580;2022-11-15T14:43:55;18.70;99.00
32787;DHT22;19139;49.372;8.580;2022-11-15T14:46:26;18.70;99.00
32787;DHT22;19139;49.372;8.580;2022-11-15T14:48:58;18.80;99.10
32787;DHT22;19139;49.372;8.580;2022-11-15T14:51:29;18.70;99.10
32787;DHT22;19139;49.372;8.580;2022-11-15T14:53:56;18.70;99.10
32787;DHT22;19139;49.372;8.580;2022-11-15T14:56:27;18.80;99.20
32787;DHT22;19139;49.372;8.580;2022-11-15T14:58:59;18.80;99.30
32787;DHT22;19139;49.372;8.580;2022-11-15T15:01:26;18.80;99.30
32787;DHT22;19139;49.372;8.580;2022-11-15T15:03:58;18.80;99.30
32787;DHT22;19139;49.372;8.580;2022-11-15T15:06:30;18.80;99.40
32787;DHT22;19139;49.372;8.580;2022-11-15T15:08:57;18.80;99.40
32787;DHT22;19139;49.372;8.580;2022-11-15T15:11:30;18.80;99.40
32787;DHT22;19139;49.372;8.580;2022-11-15T15:13:57;18.80;99.50
32787;DHT22;19139;49.372;8.580;2022-11-15T15:16:27;18.80;99.50
32787;DHT22;19139;49.372;8.580;2022-11-15T15:18:54;18.80;99.50
32787;DHT22;19139;49.372;8.580;2022-11-15T15:21:25;18.80;99.50
32787;DHT22;19139;49.372;8.580;2022-11-15T15:24:01;18.80;99.70
32787;DHT22;19139;49.372;8.580;2022-11-15T15:26:28;18.90;99.90
32787;DHT22;19139;49.372;8.580;2022-11-15T15:28:54;18.90;99.90
32787;DHT22;19139;49.372;8.580;2022-11-15T15:31:21;18.90;99.90
32787;DHT22;19139;49.372;8.580;2022-11-15T15:33:47;18.90;99.90
32787;DHT22;19139;49.372;8.580;2022-11-15T15:36:17;18.90;99.90
32787;DHT22;19139;49.372;8.580;2022-11-15T15:38:44;18.90;99.90
32787;DHT22;19139;49.372;8.580;2022-11-15T15:41:14;18.90;99.90
32787;DHT22;19139;49.372;8.580;2022-11-15T15:43:41;18.90;99.90
32787;DHT22;19139;49.372;8.580;2022-11-15T15:46:11;18.90;99.90
32787;DHT22;19139;49.372;8.580;2022-11-15T15:48:38;18.90;99.90
32787;DHT22;19139;49.372;8.580;2022-11-15T15:51:06;18.90;99.90
32787;DHT22;19139;49.372;8.580;2022-11-15T15:53:45;18.90;99.90
32787;DHT22;19139;49.372;8.580;2022-11-15T15:56:11;18.90;99.90
32787;DHT22;19139;49.372;8.580;2022-11-15T15:58:38;18.90;99.90
32787;DHT22;19139;49.372;8.580;2022-11-15T16:01:04;18.90;99.90
32787;DHT22;19139;49.372;8.580;2022-11-15T16:03:31;18.90;99.90
32787;DHT22;19139;49.372;8.580;2022-11-15T16:05:58;18.90;99.90
32787;DHT22;19139;49.372;8.580;2022-11-15T16:08:25;18.90;99.90
32787;DHT22;19139;49.372;8.580;2022-11-15T16:11:03;18.90;99.90
32787;DHT22;19139;49.372;8.580;2022-11-15T16:13:32;18.90;99.90
32787;DHT22;19139;49.372;8.580;2022-11-15T16:16:00;18.90;99.90
32787;DHT22;19139;49.372;8.580;2022-11-15T16:18:26;18.90;99.90
32787;DHT22;19139;49.372;8.580;2022-11-15T16:20:53;18.90;99.90
32787;DHT22;19139;49.372;8.580;2022-11-15T16:23:22;18.90;99.90
32787;DHT22;19139;49.372;8.580;2022-11-15T16:25:52;18.90;99.90
32787;DHT22;19139;49.372;8.580;2022-11-15T16:30:49;18.90;99.80
32787;DHT22;19139;49.372;8.580;2022-11-15T16:33:22;18.90;99.70
32787;DHT22;19139;49.372;8.580;2022-11-15T16:35:49;18.90;99.70
32787;DHT22;19139;49.372;8.580;2022-11-15T16:38:15;18.90;99.60
32787;DHT22;19139;49.372;8.580;2022-11-15T16:40:47;18.90;99.60
32787;DHT22;19139;49.372;8.580;2022-11-15T16:43:19;18.90;99.50
32787;DHT22;19139;49.372;8.580;2022-11-15T16:45:50;18.90;99.50
32787;DHT22;19139;49.372;8.580;2022-11-15T16:48:21;18.90;99.40
32787;DHT22;19139;49.372;8.580;2022-11-15T16:50:48;18.90;99.40
32787;DHT22;19139;49.372;8.580;2022-11-15T16:53:15;18.90;99.30
32787;DHT22;19139;49.372;8.580;2022-11-15T16:55:41;18.90;99.30
32787;DHT22;19139;49.372;8.580;2022-11-15T16:58:08;18.90;99.30
32787;DHT22;19139;49.372;8.580;2022-11-15T17:00:35;18.90;99.30
32787;DHT22;19139;49.372;8.580;2022-11-15T17:03:02;18.90;99.20
32787;DHT22;19139;49.372;8.580;2022-11-15T17:05:29;18.90;99.20
32787;DHT22;19139;49.372;8.580;2022-11-15T17:07:55;18.70;97.80
32787;DHT22;19139;49.372;8.580;2022-11-15T17:10:27;18.60;96.90
32787;DHT22;19139;49.372;8.580;2022-11-15T17:12:58;18.60;96.90
32787;DHT22;19139;49.372;8.580;2022-11-15T17:15:30;18.60;98.00
32787;DHT22;19139;49.372;8.580;2022-11-15T17:17:56;18.70;98.40
32787;DHT22;19139;49.372;8.580;2022-11-15T17:20:24;18.70;98.50
32787;DHT22;19139;49.372;8.580;2022-11-15T17:22:56;18.70;98.50
32787;DHT22;19139;49.372;8.580;2022-11-15T17:25:27;18.80;98.70
32787;DHT22;19139;49.372;8.580;2022-11-15T17:27:59;18.80;98.90
32787;DHT22;19139;49.372;8.580;2022-11-15T17:30:25;18.80;99.40
32787;DHT22;19139;49.372;8.580;2022-11-15T17:32:57;18.90;99.10
32787;DHT22;19139;49.372;8.580;2022-11-15T17:35:28;18.90;99.30
32787;DHT22;19139;49.372;8.580;2022-11-15T17:38:00;18.90;99.40
32787;DHT22;19139;49.372;8.580;2022-11-15T17:40:31;18.90;99.40
32787;DHT22;19139;49.372;8.580;2022-11-15T17:42:58;18.90;99.60
32787;DHT22;19139;49.372;8.580;2022-11-15T17:45:29;18.90;99.80
32787;DHT22;19139;49.372;8.580;2022-11-15T17:48:01;18.90;99.90
32787;DHT22;19139;49.372;8.580;2022-11-15T17:50:27;18.90;99.90
32787;DHT22;19139;49.372;8.580;2022-11-15T17:52:59;19.00;99.90
32787;DHT22;19139;49.372;8.580;2022-11-15T17:55:31;19.00;99.90
32787;DHT22;19139;49.372;8.580;2022-11-15T17:57:58;19.00;99.90
32787;DHT22;19139;49.372;8.580;2022-11-15T18:00:29;19.00;99.90
32787;DHT22;19139;49.372;8.580;2022-11-15T18:03:01;19.00;99.90
32787;DHT22;19139;49.372;8.580;2022-11-15T18:05:27;19.00;99.90
32787;DHT22;19139;49.372;8.580;2022-11-15T18:07:59;19.00;99.90
32787;DHT22;19139;49.372;8.580;2022-11-15T18:10:30;19.00;99.90
32787;DHT22;19139;49.372;8.580;2022-11-15T18:12:57;19.00;99.90
32787;DHT22;19139;49.372;8.580;2022-11-15T18:15:28;19.10;99.90
32787;DHT22;19139;49.372;8.580;2022-11-15T18:18:00;19.00;99.90
32787;DHT22;19139;49.372;8.580;2022-11-15T18:20:31;19.10;99.90
32787;DHT22;19139;49.372;8.580;2022-11-15T18:22:58;19.10;99.90
32787;DHT22;19139;49.372;8.580;2022-11-15T18:25:29;19.10;99.90
32787;DHT22;19139;49.372;8.580;2022-11-15T18:28:00;19.10;99.90
32787;DHT22;19139;49.372;8.580;2022-11-15T18:30:27;19.10;99.90